Time;durP1;ratioP1;P1;durP2;ratioP2;P2;SDS_P1;SDS_P2;PMS_P1;PMS_P2;Temp;Humidity;BMP_temperature;BMP_pressure;BME280_temperature;BME280_humidity;BME280_pressure;Samples;Min_cycle;Max_cycle;Signal;HPM_P1;HPM_P2
2023/04/19 00:01:01;;;;;;;39.80;33.80;;;;;;;9.80;100.00;99140.41;109547;1251;58958;-75
2023/04/19 00:03:29;;;;;;;37.60;33.60;;;;;;;9.80;100.00;99136.70;109295;1251;65752;-75
2023/04/19 00:05:58;;;;;;;43.90;33.60;;;;;;;9.80;100.00;99133.48;109553;1252;60128;-75
2023/04/19 00:08:25;;;;;;;40.90;33.00;;;;;;;9.80;100.00;99129.57;109522;1251;64292;-75
2023/04/19 00:10:51;;;;;;;41.60;35.00;;;;;;;9.80;100.00;99127.98;109535;1251;59359;-75
2023/04/19 00:13:18;;;;;;;44.20;36.90;;;;;;;9.81;100.00;99127.95;109538;1252;59181;-75
2023/04/19 00:15:45;;;;;;;44.00;36.10;;;;;;;9.81;100.00;99127.20;109478;1253;66068;-75
2023/04/19 00:18:11;;;;;;;39.20;34.50;;;;;;;9.82;100.00;99122.72;109523;1251;60149;-76
2023/04/19 00:20:38;;;;;;;41.80;37.20;;;;;;;9.82;100.00;99120.78;109524;1251;64090;-75
2023/04/19 00:26:45;;;;;;;43.80;36.20;;;;;;;9.81;100.00;99119.92;109567;1251;58867;-75
2023/04/19 00:29:11;;;;;;;47.80;37.50;;;;;;;9.81;100.00;99119.25;109511;1251;59309;-75
2023/04/19 00:31:38;;;;;;;49.90;40.30;;;;;;;9.81;100.00;99111.27;109518;1251;59222;-75
2023/04/19 00:34:05;;;;;;;50.40;40.90;;;;;;;9.82;100.00;99103.57;109489;1251;63323;-75
2023/04/19 00:36:32;;;;;;;67.80;45.40;;;;;;;9.83;100.00;99097.48;109556;1251;58996;-75
2023/04/19 00:38:58;;;;;;;67.10;48.90;;;;;;;9.83;100.00;99094.97;109552;1251;59030;-75
2023/04/19 00:41:24;;;;;;;65.30;46.70;;;;;;;9.83;100.00;99093.92;109536;1252;59093;-75
2023/04/19 00:43:51;;;;;;;64.90;47.20;;;;;;;9.82;100.00;99094.14;109589;1251;58981;-75
2023/04/19 00:46:17;;;;;;;71.30;51.90;;;;;;;9.82;100.00;99088.63;109507;1253;59059;-75
2023/04/19 00:48:44;;;;;;;71.00;51.50;;;;;;;9.82;100.00;99089.69;109488;1251;59282;-75
2023/04/19 00:51:11;;;;;;;74.10;52.60;;;;;;;9.82;100.00;99088.27;109566;1251;58880;-75
2023/04/19 00:53:39;;;;;;;63.00;51.90;;;;;;;9.81;100.00;99089.57;109323;1251;66086;-75
2023/04/19 00:56:07;;;;;;;59.80;47.20;;;;;;;9.82;100.00;99086.52;109515;1252;60125;-75
2023/04/19 00:58:34;;;;;;;56.30;45.10;;;;;;;9.81;100.00;99084.63;109502;1251;64084;-76
2023/04/19 01:01:01;;;;;;;59.90;49.30;;;;;;;9.79;100.00;99080.65;109568;1251;59009;-75
2023/04/19 01:03:28;;;;;;;60.30;49.50;;;;;;;9.79;100.00;99078.94;109548;1251;59335;-75
2023/04/19 01:05:55;;;;;;;61.90;50.70;;;;;;;9.78;100.00;99074.36;109261;1252;65339;-75
2023/04/19 01:08:22;;;;;;;63.90;52.30;;;;;;;9.77;100.00;99073.16;109591;1251;60150;-75
2023/04/19 01:10:49;;;;;;;69.60;54.10;;;;;;;9.77;100.00;99069.98;109520;1251;63276;-75
2023/04/19 01:13:15;;;;;;;66.20;52.60;;;;;;;9.78;100.00;99068.31;109478;1251;59036;-76
2023/04/19 01:15:42;;;;;;;70.40;54.90;;;;;;;9.79;100.00;99061.52;109500;1251;58908;-75
2023/04/19 01:18:10;;;;;;;65.60;54.50;;;;;;;9.80;100.00;99059.70;109520;1252;66463;-75
2023/04/19 01:20:37;;;;;;;69.30;54.70;;;;;;;9.80;100.00;99060.23;109517;1252;59023;-75
2023/04/19 01:23:03;;;;;;;67.30;54.00;;;;;;;9.79;100.00;99052.45;109520;1253;59033;-75
2023/04/19 01:25:29;;;;;;;70.20;54.50;;;;;;;9.79;100.00;99053.17;109525;1251;58947;-76
2023/04/19 01:27:56;;;;;;;70.10;55.80;;;;;;;9.79;100.00;99051.73;109483;1251;58977;-75
2023/04/19 01:30:52;;;;;;;72.90;56.70;;;;;;;9.79;100.00;99050.48;109552;1251;59032;-75
2023/04/19 01:33:20;;;;;;;67.70;51.60;;;;;;;9.78;100.00;99045.11;109480;1251;59098;-75
2023/04/19 01:35:47;;;;;;;67.80;54.30;;;;;;;9.77;100.00;99044.08;109521;1251;62815;-75
2023/04/19 01:38:16;;;;;;;68.20;54.20;;;;;;;9.76;100.00;99040.55;109501;1251;58922;-75
2023/04/19 01:40:43;;;;;;;65.20;51.10;;;;;;;9.76;100.00;99036.17;109526;1251;59033;-75
2023/04/19 01:43:15;;;;;;;64.40;51.10;;;;;;;9.74;100.00;99033.45;109253;1251;66094;-75
2023/04/19 01:45:42;;;;;;;68.20;50.60;;;;;;;9.73;100.00;99030.17;109477;1251;60154;-75
2023/04/19 01:48:08;;;;;;;65.20;50.20;;;;;;;9.71;100.00;99036.10;109468;1251;58969;-75
2023/04/19 01:50:35;;;;;;;62.00;49.10;;;;;;;9.70;100.00;99027.68;109494;1251;59038;-75
2023/04/19 01:53:01;;;;;;;65.20;49.00;;;;;;;9.68;100.00;99026.52;109515;1251;59044;-75
2023/04/19 01:55:28;;;;;;;58.80;47.90;;;;;;;9.67;100.00;99025.88;109261;1251;59256;-75
2023/04/19 01:57:54;;;;;;;57.30;48.30;;;;;;;9.66;100.00;99023.80;109503;1251;59791;-75
2023/04/19 02:00:30;;;;;;;59.10;47.60;;;;;;;9.65;100.00;99018.20;109214;1251;62897;-75
2023/04/19 02:02:57;;;;;;;64.70;50.60;;;;;;;9.64;100.00;99019.00;109244;1253;59218;-75
2023/04/19 02:05:28;;;;;;;61.90;47.70;;;;;;;9.63;100.00;99010.17;109521;1251;58864;-75
2023/04/19 02:07:55;;;;;;;64.50;50.50;;;;;;;9.62;100.00;99000.13;109251;1251;66022;-75
2023/04/19 02:10:21;;;;;;;63.70;51.50;;;;;;;9.61;100.00;98997.02;109630;1250;60651;-75
2023/04/19 02:12:48;;;;;;;65.50;53.00;;;;;;;9.60;100.00;98991.60;109633;1250;64064;-75
2023/04/19 02:15:14;;;;;;;62.30;50.10;;;;;;;9.58;100.00;98985.27;109606;1250;59246;-75
2023/04/19 02:17:42;;;;;;;68.80;51.90;;;;;;;9.56;100.00;98985.23;109626;1250;58907;-75
2023/04/19 02:20:08;;;;;;;70.10;54.40;;;;;;;9.55;100.00;98988.54;109634;1250;66041;-75
2023/04/19 02:22:35;;;;;;;77.50;56.40;;;;;;;9.53;100.00;98987.77;109479;1250;60130;-75
2023/04/19 02:25:01;;;;;;;76.90;56.20;;;;;;;9.50;100.00;98985.98;109602;1250;62791;-75
2023/04/19 02:27:28;;;;;;;86.80;60.70;;;;;;;9.48;100.00;98985.23;109616;1250;59027;-75
2023/04/19 02:29:55;;;;;;;82.30;58.80;;;;;;;9.45;100.00;98979.58;109625;1250;58953;-76
2023/04/19 02:32:21;;;;;;;79.80;58.90;;;;;;;9.41;100.00;98979.94;109623;1250;66340;-76
2023/04/19 02:34:48;;;;;;;73.90;58.20;;;;;;;9.39;100.00;98983.45;109649;1250;59009;-75
2023/04/19 02:37:14;;;;;;;82.40;62.00;;;;;;;9.37;100.00;98989.84;109652;1250;59113;-76
2023/04/19 02:39:41;;;;;;;76.00;61.20;;;;;;;9.33;100.00;98986.68;109629;1255;58978;-75
2023/04/19 02:42:07;;;;;;;70.00;55.00;;;;;;;9.31;100.00;98986.30;109652;1250;59097;-75
2023/04/19 02:44:34;;;;;;;66.30;53.80;;;;;;;9.29;100.00;98984.13;109661;1250;66012;-75
2023/04/19 02:47:01;;;;;;;66.40;55.00;;;;;;;9.26;100.00;98982.15;109631;1250;59075;-75
2023/04/19 02:49:31;;;;;;;62.00;51.40;;;;;;;9.23;100.00;98980.70;109601;1250;59333;-75
2023/04/19 02:51:58;;;;;;;66.10;52.00;;;;;;;9.21;100.00;98971.64;109470;1251;59333;-75
2023/04/19 02:54:24;;;;;;;64.80;49.90;;;;;;;9.19;100.00;98973.20;109665;1250;58942;-76
2023/04/19 02:56:51;;;;;;;62.80;49.50;;;;;;;9.17;100.00;98966.79;109633;1250;59096;-75
2023/04/19 02:59:17;;;;;;;62.50;46.90;;;;;;;9.14;100.00;98963.76;109596;1250;59082;-75
2023/04/19 03:01:44;;;;;;;60.10;46.90;;;;;;;9.11;100.00;98957.53;109616;1250;59043;-75
2023/04/19 03:04:10;;;;;;;56.80;46.00;;;;;;;9.08;100.00;98960.39;109657;1250;59056;-76
2023/04/19 03:06:37;;;;;;;54.50;44.90;;;;;;;9.04;100.00;98960.48;109604;1250;59002;-75
2023/04/19 03:09:03;;;;;;;61.50;46.50;;;;;;;8.99;100.00;98959.69;109559;1250;59097;-74
2023/04/19 03:11:29;;;;;;;56.50;46.10;;;;;;;8.96;100.00;98955.09;109682;1252;59014;-74
2023/04/19 03:13:56;;;;;;;55.10;45.30;;;;;;;8.93;100.00;98954.92;109620;1250;59042;-74
2023/04/19 03:16:22;;;;;;;52.10;43.70;;;;;;;8.91;100.00;98952.59;109591;1250;58941;-75
2023/04/19 03:18:55;;;;;;;55.00;43.90;;;;;;;8.89;100.00;98950.74;109623;1250;59007;-75
2023/04/19 03:21:25;;;;;;;50.10;42.00;;;;;;;8.88;100.00;98944.98;109660;1250;64857;-75
2023/04/19 03:23:53;;;;;;;50.40;41.50;;;;;;;8.86;100.00;98944.04;109636;1250;59027;-75
2023/04/19 03:26:20;;;;;;;50.10;41.00;;;;;;;8.84;100.00;98943.77;109642;1250;64062;-75
2023/04/19 03:28:47;;;;;;;54.70;43.50;;;;;;;8.83;100.00;98936.08;109625;1250;58936;-75
2023/04/19 03:31:14;;;;;;;48.80;41.20;;;;;;;8.81;100.00;98931.03;109603;1251;59002;-76
2023/04/19 03:33:40;;;;;;;51.60;41.90;;;;;;;8.79;100.00;98935.23;109642;1251;64807;-75
2023/04/19 03:36:07;;;;;;;52.00;42.10;;;;;;;8.78;100.00;98928.55;109615;1250;59029;-75
2023/04/19 03:38:34;;;;;;;53.30;43.60;;;;;;;8.77;100.00;98922.20;109268;1251;64080;-76
2023/04/19 03:41:00;;;;;;;51.50;43.40;;;;;;;8.77;100.00;98914.77;109581;1250;58950;-75
2023/04/19 03:43:27;;;;;;;56.50;47.50;;;;;;;8.76;100.00;98908.62;109340;1251;59146;-75
2023/04/19 03:45:53;;;;;;;47.20;40.00;;;;;;;8.75;100.00;98899.85;109639;1250;64644;-76
2023/04/19 03:48:20;;;;;;;59.00;46.30;;;;;;;8.74;100.00;98897.80;109653;1251;58968;-75
2023/04/19 03:50:49;;;;;;;53.80;43.10;;;;;;;8.73;100.00;98893.29;109619;1250;59103;-75
2023/04/19 03:53:17;;;;;;;64.30;47.40;;;;;;;8.71;100.00;98886.61;109319;1250;59463;-76
2023/04/19 03:55:44;;;;;;;60.10;47.10;;;;;;;8.72;100.00;98881.61;109627;1254;59034;-75
2023/04/19 03:58:11;;;;;;;54.60;43.10;;;;;;;8.72;100.00;98880.55;109657;1251;66013;-76
2023/04/19 04:00:37;;;;;;;54.30;43.10;;;;;;;8.73;100.00;98886.70;109648;1251;59034;-75
2023/04/19 04:03:04;;;;;;;53.80;42.50;;;;;;;8.73;100.00;98890.24;109591;1251;59059;-75
2023/04/19 04:05:30;;;;;;;58.30;46.40;;;;;;;8.72;100.00;98896.34;109618;1250;59298;-76
2023/04/19 04:07:56;;;;;;;69.50;52.40;;;;;;;8.72;100.00;98899.72;109606;1251;59395;-75
2023/04/19 04:10:23;;;;;;;69.20;52.40;;;;;;;8.72;100.00;98902.15;109581;1250;59152;-75
2023/04/19 04:12:50;;;;;;;59.80;46.50;;;;;;;8.73;100.00;98910.23;109645;1251;58989;-75
2023/04/19 04:15:16;;;;;;;64.30;50.30;;;;;;;8.74;100.00;98911.63;109553;1250;64096;-76
2023/04/19 04:17:43;;;;;;;51.50;43.60;;;;;;;8.75;100.00;98905.89;109597;1254;59221;-76
2023/04/19 04:20:12;;;;;;;55.20;44.70;;;;;;;8.78;100.00;98907.34;109456;1250;59476;-76
2023/04/19 04:22:44;;;;;;;50.90;43.40;;;;;;;8.79;100.00;98909.55;109595;1250;66056;-76
2023/04/19 04:25:11;;;;;;;52.30;43.50;;;;;;;8.81;100.00;98905.34;109647;1255;60181;-76
2023/04/19 04:27:38;;;;;;;47.60;38.80;;;;;;;8.85;100.00;98904.73;109355;1251;62853;-76
2023/04/19 04:30:05;;;;;;;45.30;39.80;;;;;;;8.91;100.00;98905.64;109602;1250;58958;-75
2023/04/19 04:32:34;;;;;;;47.10;39.60;;;;;;;8.95;100.00;98901.48;109663;1250;59003;-75
2023/04/19 04:35:02;;;;;;;46.50;39.70;;;;;;;8.99;100.00;98902.14;109661;1251;66006;-75
2023/04/19 04:37:32;;;;;;;51.10;41.60;;;;;;;9.02;100.00;98897.13;109625;1251;60252;-76
2023/04/19 04:40:00;;;;;;;47.70;39.60;;;;;;;9.02;100.00;98895.34;109606;1251;64032;-75
2023/04/19 04:42:26;;;;;;;47.70;39.70;;;;;;;8.99;100.00;98897.48;109595;1250;58995;-76
2023/04/19 04:44:56;;;;;;;47.20;38.90;;;;;;;8.96;100.00;98898.06;109643;1251;59093;-76
2023/04/19 04:47:23;;;;;;;41.40;36.10;;;;;;;8.93;100.00;98893.26;109624;1251;66123;-76
2023/04/19 04:49:51;;;;;;;42.40;34.80;;;;;;;8.91;100.00;98891.27;109644;1251;60081;-75
2023/04/19 04:52:17;;;;;;;37.90;32.60;;;;;;;8.90;100.00;98885.83;109642;1250;64054;-76
2023/04/19 04:54:44;;;;;;;37.60;30.90;;;;;;;8.90;100.00;98884.43;109563;1250;58988;-76
2023/04/19 04:57:10;;;;;;;36.60;30.80;;;;;;;8.90;100.00;98884.45;109626;1250;59055;-76
2023/04/19 04:59:37;;;;;;;34.30;28.80;;;;;;;8.90;100.00;98880.20;109606;1251;58935;-75
2023/04/19 05:02:03;;;;;;;36.20;32.00;;;;;;;8.88;100.00;98879.92;109631;1251;59096;-76
2023/04/19 05:04:30;;;;;;;33.50;28.90;;;;;;;8.90;100.00;98882.13;109579;1251;59062;-76
2023/04/19 05:06:56;;;;;;;33.90;28.70;;;;;;;8.93;100.00;98882.66;109608;1250;59030;-75
2023/04/19 05:09:22;;;;;;;32.40;27.20;;;;;;;8.95;100.00;98881.81;109344;1251;59136;-76
2023/04/19 05:11:49;;;;;;;30.90;26.00;;;;;;;8.96;100.00;98878.52;109634;1250;58969;-76
2023/04/19 05:14:16;;;;;;;31.10;27.00;;;;;;;8.98;100.00;98878.43;109371;1250;59191;-76
2023/04/19 05:16:42;;;;;;;31.10;27.80;;;;;;;8.98;100.00;98878.77;109730;1250;62858;-76
2023/04/19 05:19:09;;;;;;;31.60;28.10;;;;;;;9.00;100.00;98875.50;109548;1251;58997;-77
2023/04/19 05:21:35;;;;;;;35.00;28.50;;;;;;;9.02;100.00;98873.39;109602;1251;59048;-76
2023/04/19 05:24:02;;;;;;;32.60;28.10;;;;;;;9.03;100.00;98875.32;109674;1250;59274;-76
2023/04/19 05:26:28;;;;;;;30.80;27.50;;;;;;;9.03;100.00;98875.66;109618;1250;60179;-76
2023/04/19 05:28:55;;;;;;;34.20;28.90;;;;;;;9.04;100.00;98871.89;109616;1250;59014;-76
2023/04/19 05:31:21;;;;;;;35.40;28.80;;;;;;;9.05;100.00;98875.17;109653;1250;59576;-77
2023/04/19 05:33:48;;;;;;;32.80;27.70;;;;;;;9.08;100.00;98871.45;109656;1251;59302;-76
2023/04/19 05:36:14;;;;;;;33.10;28.90;;;;;;;9.13;100.00;98872.34;109577;1250;59619;-77
2023/04/19 05:38:41;;;;;;;38.70;34.50;;;;;;;9.20;100.00;98877.39;109641;1251;58963;-77
2023/04/19 05:41:07;;;;;;;34.60;30.80;;;;;;;9.26;100.00;98884.52;109561;1251;59902;-76
2023/04/19 05:43:33;;;;;;;33.90;30.20;;;;;;;9.28;100.00;98884.33;109615;1250;59002;-77
2023/04/19 05:46:00;;;;;;;34.10;30.00;;;;;;;9.33;100.00;98887.06;109614;1251;58972;-77
2023/04/19 05:48:26;;;;;;;34.10;30.50;;;;;;;9.40;100.00;98885.90;109675;1250;59043;-76
2023/04/19 05:50:55;;;;;;;36.10;31.90;;;;;;;9.46;100.00;98884.25;109610;1251;58959;-76
2023/04/19 05:53:21;;;;;;;33.10;29.50;;;;;;;9.52;100.00;98884.42;109567;1251;64065;-77
2023/04/19 05:55:49;;;;;;;34.30;30.70;;;;;;;9.61;100.00;98883.33;109588;1251;58939;-76
2023/04/19 05:58:16;;;;;;;34.10;29.70;;;;;;;9.69;100.00;98881.02;109617;1250;58944;-77
2023/04/19 06:00:42;;;;;;;35.20;29.00;;;;;;;9.76;100.00;98878.94;109618;1250;59232;-77
2023/04/19 06:03:09;;;;;;;32.20;28.70;;;;;;;9.84;100.00;98877.54;109405;1251;59087;-76
2023/04/19 06:05:35;;;;;;;33.30;29.70;;;;;;;9.92;100.00;98880.55;109591;1251;59076;-77
2023/04/19 06:08:01;;;;;;;35.30;29.40;;;;;;;10.00;100.00;98883.60;109487;1251;59088;-77
2023/04/19 06:10:28;;;;;;;35.90;32.00;;;;;;;10.09;100.00;98881.91;109581;1250;59287;-77
2023/04/19 06:12:55;;;;;;;34.40;29.60;;;;;;;10.16;100.00;98883.59;109582;1251;58956;-76
2023/04/19 06:15:21;;;;;;;35.30;29.10;;;;;;;10.19;100.00;98885.50;109598;1250;59225;-77
2023/04/19 06:17:48;;;;;;;32.20;28.60;;;;;;;10.18;100.00;98885.45;109621;1250;64038;-77
2023/04/19 06:20:14;;;;;;;32.80;28.90;;;;;;;10.17;100.00;98887.77;109596;1250;59043;-77
2023/04/19 06:22:43;;;;;;;30.90;27.60;;;;;;;10.19;100.00;98884.48;109590;1250;59024;-77
2023/04/19 06:25:10;;;;;;;36.80;30.70;;;;;;;10.19;100.00;98884.48;109575;1250;66007;-76
2023/04/19 06:27:36;;;;;;;35.30;29.40;;;;;;;10.17;100.00;98883.73;109353;1251;60148;-77
2023/04/19 06:30:03;;;;;;;30.80;26.90;;;;;;;10.13;100.00;98885.75;109576;1251;58959;-77
2023/04/19 06:32:30;;;;;;;32.40;29.00;;;;;;;10.10;100.00;98888.06;109575;1251;59042;-77
2023/04/19 06:34:56;;;;;;;37.50;29.80;;;;;;;10.09;100.00;98885.27;109647;1251;59129;-77
2023/04/19 06:37:23;;;;;;;34.70;31.10;;;;;;;10.10;100.00;98882.39;109605;1250;59023;-76
2023/04/19 06:39:49;;;;;;;33.20;29.70;;;;;;;10.04;100.00;98882.25;109626;1250;59020;-77
2023/04/19 06:42:18;;;;;;;30.00;26.90;;;;;;;9.96;100.00;98881.90;109596;1251;64114;-77
2023/04/19 06:44:45;;;;;;;32.30;28.80;;;;;;;9.88;100.00;98881.74;109605;1250;59245;-77
2023/04/19 06:47:11;;;;;;;34.10;30.30;;;;;;;9.79;100.00;98880.52;109629;1251;59060;-77
2023/04/19 06:49:38;;;;;;;31.30;28.00;;;;;;;9.73;100.00;98880.78;109575;1250;59351;-77
2023/04/19 06:52:04;;;;;;;31.40;27.00;;;;;;;9.64;100.00;98883.11;109620;1251;58974;-77
2023/04/19 06:54:31;;;;;;;33.80;24.70;;;;;;;9.57;100.00;98882.14;109575;1250;58925;-76
2023/04/19 06:56:58;;;;;;;32.30;26.20;;;;;;;9.53;100.00;98879.42;109570;1250;59014;-76
2023/04/19 06:59:27;;;;;;;30.00;24.90;;;;;;;9.52;100.00;98880.02;109624;1250;59147;-76
2023/04/19 07:01:53;;;;;;;26.10;19.30;;;;;;;9.54;100.00;98884.48;109592;1251;66240;-76
2023/04/19 07:04:19;;;;;;;19.70;16.90;;;;;;;9.54;100.00;98884.64;109586;1249;58971;-76
2023/04/19 07:06:51;;;;;;;14.10;12.40;;;;;;;9.58;100.00;98888.48;109550;1251;59049;-76
2023/04/19 07:09:17;;;;;;;14.60;11.80;;;;;;;9.59;100.00;98892.27;109562;1250;58961;-76
2023/04/19 07:11:44;;;;;;;9.90;8.70;;;;;;;9.60;100.00;98890.44;109426;1250;59004;-76
2023/04/19 07:14:11;;;;;;;7.30;6.60;;;;;;;9.64;100.00;98893.41;109583;1250;66170;-76
2023/04/19 07:16:37;;;;;;;6.50;5.90;;;;;;;9.67;100.00;98898.52;109643;1250;60093;-76
2023/04/19 07:19:04;;;;;;;6.50;5.50;;;;;;;9.72;100.00;98896.61;109591;1250;59068;-76
2023/04/19 07:21:32;;;;;;;5.50;5.00;;;;;;;9.74;100.00;98897.53;109590;1250;59170;-76
2023/04/19 07:23:58;;;;;;;5.20;4.80;;;;;;;9.71;100.00;98901.32;109596;1250;59321;-76
2023/04/19 07:26:25;;;;;;;5.70;5.20;;;;;;;9.70;100.00;98905.83;109605;1250;64794;-76
2023/04/19 07:28:52;;;;;;;4.00;3.60;;;;;;;9.67;100.00;98904.52;109603;1250;60152;-76
2023/04/19 07:31:18;;;;;;;3.70;3.40;;;;;;;9.66;100.00;98904.23;109331;1250;59164;-76
2023/04/19 07:33:45;;;;;;;4.40;4.00;;;;;;;9.68;100.00;98905.90;109580;1250;59088;-76
2023/04/19 07:36:12;;;;;;;4.50;3.60;;;;;;;9.68;100.00;98906.44;109579;1250;58859;-74
2023/04/19 07:38:38;;;;;;;4.00;3.60;;;;;;;9.64;100.00;98906.86;109598;1250;66037;-74
2023/04/19 07:41:05;;;;;;;3.60;3.30;;;;;;;9.60;100.00;98903.27;109524;1250;60168;-75
2023/04/19 07:43:31;;;;;;;4.10;2.90;;;;;;;9.51;100.00;98910.22;109608;1250;64052;-75
2023/04/19 07:45:58;;;;;;;4.50;3.00;;;;;;;9.49;100.00;98913.34;109603;1250;59037;-75
2023/04/19 07:48:24;;;;;;;3.80;3.00;;;;;;;9.54;100.00;98911.64;109598;1250;58827;-76
2023/04/19 07:50:51;;;;;;;4.40;3.50;;;;;;;9.58;100.00;98914.86;109601;1250;59088;-75
2023/04/19 07:53:17;;;;;;;3.80;3.30;;;;;;;9.66;100.00;98906.53;109602;1250;58996;-76
2023/04/19 07:55:44;;;;;;;4.20;3.80;;;;;;;9.75;100.00;98904.58;109550;1250;62514;-75
2023/04/19 07:58:10;;;;;;;3.90;3.40;;;;;;;9.88;100.00;98904.81;109335;1250;59014;-76
2023/04/19 08:00:37;;;;;;;3.80;3.40;;;;;;;9.94;100.00;98909.76;109584;1251;59004;-76
2023/04/19 08:03:11;;;;;;;4.30;3.40;;;;;;;9.93;100.00;98908.03;109583;1250;64607;-75
2023/04/19 08:05:43;;;;;;;3.50;3.30;;;;;;;9.91;100.00;98908.13;109629;1250;59008;-75
2023/04/19 08:08:10;;;;;;;5.10;3.60;;;;;;;9.93;100.00;98909.29;109590;1250;64162;-75
2023/04/19 08:10:36;;;;;;;5.70;4.40;;;;;;;9.92;100.00;98909.84;109589;1250;58868;-75
2023/04/19 08:13:03;;;;;;;5.50;4.80;;;;;;;9.93;100.00;98905.52;109578;1250;58835;-76
2023/04/19 08:15:30;;;;;;;6.60;5.80;;;;;;;9.90;100.00;98909.98;109639;1250;66377;-76
2023/04/19 08:17:56;;;;;;;7.60;5.30;;;;;;;9.82;100.00;98908.75;109579;1250;59059;-76
2023/04/19 08:20:23;;;;;;;5.30;4.80;;;;;;;9.68;100.00;98908.54;109593;1250;59080;-76
2023/04/19 08:22:49;;;;;;;5.50;5.00;;;;;;;9.57;100.00;98914.98;109584;1250;59041;-75
2023/04/19 08:25:16;;;;;;;5.80;4.20;;;;;;;9.51;100.00;98915.50;109590;1250;58880;-76
2023/04/19 08:27:42;;;;;;;4.20;3.80;;;;;;;9.50;100.00;98914.88;109566;1250;64808;-75
2023/04/19 08:30:09;;;;;;;4.50;3.30;;;;;;;9.49;100.00;98918.98;109567;1250;58960;-75
2023/04/19 08:32:36;;;;;;;3.70;3.40;;;;;;;9.49;100.00;98919.39;109307;1250;64108;-75
2023/04/19 08:35:03;;;;;;;4.60;3.80;;;;;;;9.51;100.00;98917.45;109586;1251;59003;-75
2023/04/19 08:37:29;;;;;;;3.40;3.00;;;;;;;9.56;100.00;98914.48;109625;1250;58900;-76
2023/04/19 08:39:55;;;;;;;5.70;3.10;;;;;;;9.60;100.00;98915.81;109604;1250;59591;-75
2023/04/19 08:42:22;;;;;;;3.00;2.60;;;;;;;9.65;100.00;98915.48;109608;1250;59314;-75
2023/04/19 08:44:49;;;;;;;4.00;2.90;;;;;;;9.65;100.00;98921.72;109655;1250;59079;-76
2023/04/19 08:47:16;;;;;;;3.90;2.60;;;;;;;9.58;100.00;98922.71;109573;1250;59019;-76
2023/04/19 08:49:44;;;;;;;3.80;2.70;;;;;;;9.50;100.00;98921.83;109617;1250;59383;-76
2023/04/19 08:52:12;;;;;;;3.40;2.10;;;;;;;9.43;100.00;98923.10;109508;1250;66025;-76
2023/04/19 08:54:40;;;;;;;3.30;2.40;;;;;;;9.40;100.00;98916.02;109642;1250;58999;-75
2023/04/19 08:57:08;;;;;;;2.70;2.30;;;;;;;9.40;100.00;98921.01;109604;1250;64060;-75
2023/04/19 08:59:34;;;;;;;2.80;2.50;;;;;;;9.41;100.00;98919.83;109575;1250;58960;-75
2023/04/19 09:02:01;;;;;;;2.90;2.00;;;;;;;9.43;100.00;98920.44;109458;1250;58979;-75
2023/04/19 09:04:27;;;;;;;2.70;2.10;;;;;;;9.47;100.00;98920.36;109617;1251;65722;-75
2023/04/19 09:06:54;;;;;;;3.40;2.70;;;;;;;9.49;100.00;98918.27;109576;1250;59265;-75
2023/04/19 09:09:29;;;;;;;3.00;2.80;;;;;;;9.54;100.00;98918.17;109587;1250;64042;-75
2023/04/19 09:11:57;;;;;;;3.00;2.50;;;;;;;9.63;100.00;98917.01;109581;1250;59283;-75
2023/04/19 09:14:25;;;;;;;3.00;2.80;;;;;;;9.73;100.00;98911.98;109574;1250;59286;-75
2023/04/19 09:16:53;;;;;;;3.20;2.20;;;;;;;9.82;100.00;98914.08;109583;1250;66028;-75
2023/04/19 09:19:19;;;;;;;2.90;1.90;;;;;;;9.85;100.00;98912.81;109578;1250;59978;-75
2023/04/19 09:21:46;;;;;;;1.80;1.70;;;;;;;9.89;100.00;98914.85;109568;1250;62846;-75
2023/04/19 09:24:13;;;;;;;2.40;2.20;;;;;;;9.92;100.00;98909.33;109561;1250;58919;-76
2023/04/19 09:26:53;;;;;;;4.00;2.20;;;;;;;10.01;100.00;98914.74;109472;1250;174409;-75
2023/04/19 09:29:20;;;;;;;2.40;2.20;;;;;;;10.14;100.00;98912.00;109706;1250;64771;-76
2023/04/19 09:31:57;;;;;;;3.10;2.30;;;;;;;10.24;100.00;98913.27;109742;1250;60147;-75
2023/04/19 09:34:24;;;;;;;3.60;2.60;;;;;;;10.33;100.00;98909.30;109636;1251;63290;-76
2023/04/19 09:36:50;;;;;;;3.20;2.30;;;;;;;10.41;100.00;98911.76;109578;1250;58936;-76
2023/04/19 09:39:31;;;;;;;2.60;2.20;;;;;;;10.50;100.00;98916.86;109632;1250;59070;-76
2023/04/19 09:41:57;;;;;;;;;;;;;;;10.63;100.00;98913.27;109665;1250;66033;-76
2023/04/19 09:44:24;;;;;;;2.30;1.80;;;;;;;10.82;100.00;98917.49;109590;1250;59041;-76
2023/04/19 09:46:51;;;;;;;2.20;2.00;;;;;;;11.02;100.00;98912.72;109615;1250;63719;-77
2023/04/19 09:49:22;;;;;;;2.70;2.40;;;;;;;11.06;100.00;98916.55;109521;1250;58965;-76
2023/04/19 09:51:51;;;;;;;2.70;2.00;;;;;;;11.07;100.00;98918.79;109522;1250;59105;-76
2023/04/19 09:54:20;;;;;;;3.00;2.10;;;;;;;11.12;100.00;98920.01;109550;1250;64862;-76
2023/04/19 09:56:48;;;;;;;2.60;2.40;;;;;;;11.13;100.00;98917.10;109650;1250;60561;-77
2023/04/19 09:59:15;;;;;;;2.70;2.20;;;;;;;11.11;100.00;98914.59;109557;1250;64047;-77
2023/04/19 10:01:55;;;;;;;2.70;2.30;;;;;;;11.15;100.00;98917.48;109558;1250;58968;-76
2023/04/19 10:04:21;;;;;;;2.70;2.20;;;;;;;11.19;100.00;98916.35;109563;1250;58978;-77
2023/04/19 10:06:50;;;;;;;2.30;2.10;;;;;;;11.19;100.00;98917.42;109590;1250;58941;-77
2023/04/19 10:09:18;;;;;;;2.50;2.10;;;;;;;11.20;100.00;98916.09;109625;1250;59110;-77
2023/04/19 10:11:53;;;;;;;2.60;2.40;;;;;;;11.24;100.00;98915.59;109598;1250;64086;-76
2023/04/19 10:14:24;;;;;;;2.40;2.20;;;;;;;11.33;100.00;98916.73;109603;1253;59027;-76
2023/04/19 10:16:52;;;;;;;5.50;2.80;;;;;;;11.38;100.00;98915.52;109594;1250;58986;-76
2023/04/19 10:19:20;;;;;;;4.00;2.60;;;;;;;11.39;100.00;98914.36;109583;1250;66293;-76
2023/04/19 10:21:49;;;;;;;2.10;2.00;;;;;;;11.50;100.00;98914.31;109517;1250;60109;-76
2023/04/19 10:24:21;;;;;;;3.30;1.90;;;;;;;11.50;100.00;98915.73;109564;1250;64130;-77
2023/04/19 10:27:07;;;;;;;2.80;1.90;;;;;;;11.34;100.00;98913.85;109539;1250;58985;-77
2023/04/19 10:29:53;;;;;;;2.40;2.10;;;;;;;11.19;100.00;98910.85;109597;1250;58990;-77
2023/04/19 10:32:20;;;;;;;3.10;2.60;;;;;;;11.02;100.00;98914.32;109599;1253;64846;-76
2023/04/19 10:34:46;;;;;;;2.90;2.50;;;;;;;10.92;100.00;98910.55;109642;1250;59192;-76
2023/04/19 10:37:13;;;;;;;2.20;1.90;;;;;;;10.88;100.00;98909.95;109339;1250;64111;-77
2023/04/19 10:39:41;;;;;;;2.30;2.10;;;;;;;10.80;100.00;98912.13;109578;1250;59028;-77
2023/04/19 10:42:08;;;;;;;2.30;2.10;;;;;;;10.74;100.00;98907.55;109425;1250;59589;-76
2023/04/19 10:44:34;;;;;;;3.50;2.50;;;;;;;10.73;100.00;98907.59;109642;1250;64838;-76
2023/04/19 10:47:01;;;;;;;2.40;2.20;;;;;;;10.75;100.00;98911.02;109590;1250;59003;-76
2023/04/19 10:49:28;;;;;;;2.50;2.30;;;;;;;10.79;100.00;98912.23;109578;1250;64090;-77
2023/04/19 10:51:55;;;;;;;2.70;2.30;;;;;;;10.83;100.00;98913.19;109579;1250;59056;-77
2023/04/19 10:54:32;;;;;;;2.50;2.30;;;;;;;10.82;100.00;98913.96;109578;1250;59057;-76
2023/04/19 10:57:01;;;;;;;2.90;2.60;;;;;;;10.84;100.00;98915.02;109575;1250;66055;-76
2023/04/19 10:59:29;;;;;;;2.50;2.20;;;;;;;10.93;100.00;98913.02;109622;1250;60123;-77
2023/04/19 11:02:00;;;;;;;2.50;2.20;;;;;;;11.02;100.00;98916.08;109574;1250;62513;-76
2023/04/19 11:04:29;;;;;;;2.70;2.50;;;;;;;11.14;100.00;98914.69;109553;1250;58983;-77
2023/04/19 11:07:01;;;;;;;3.80;2.00;;;;;;;11.15;100.00;98916.23;109623;1250;59031;-77
2023/04/19 11:09:33;;;;;;;2.70;2.50;;;;;;;11.04;100.00;98918.46;109570;1250;66005;-77
2023/04/19 11:12:07;;;;;;;2.30;2.10;;;;;;;10.89;100.00;98920.94;109633;1250;59135;-76
2023/04/19 11:14:36;;;;;;;3.80;2.80;;;;;;;10.83;100.00;98923.30;109544;1250;63964;-77
2023/04/19 11:17:17;;;;;;;4.00;3.20;;;;;;;10.82;100.00;98922.11;109550;1250;58971;-77
2023/04/19 11:19:57;;;;;;;2.30;2.10;;;;;;;10.83;100.00;98919.23;109623;1250;58949;-76